Time;durP1;ratioP1;P1;durP2;ratioP2;P2;SDS_P1;SDS_P2;PMS_P1;PMS_P2;Temp;Humidity;BMP_temperature;BMP_pressure;BME280_temperature;BME280_humidity;BME280_pressure;Samples;Min_cycle;Max_cycle;Signal;HPM_P1;HPM_P2
2022/11/16 00:01:23;;;;;;;4.87;3.20;;;11.90;99.90;;;;;;5052022;28;20633;-59
2022/11/16 00:03:51;;;;;;;5.07;3.60;;;11.80;99.90;;;;;;5051680;28;20739;-56
2022/11/16 00:06:19;;;;;;;3.97;3.30;;;11.80;99.90;;;;;;5051121;28;20296;-56
2022/11/16 00:09:20;;;;;;;4.80;3.60;;;11.80;99.90;;;;;;5052099;28;20206;-57
2022/11/16 00:11:36;;;;;;;5.07;4.13;;;11.80;99.90;;;;;;5052121;28;20237;-58
2022/11/16 00:14:03;;;;;;;4.87;3.60;;;11.70;99.90;;;;;;5052219;28;20231;-58
2022/11/16 00:16:32;;;;;;;6.20;3.93;;;11.80;99.90;;;;;;5051370;28;20279;-57
2022/11/16 00:19:01;;;;;;;6.60;4.03;;;11.80;99.90;;;;;;5051763;28;20687;-58
2022/11/16 00:21:28;;;;;;;4.47;3.70;;;11.80;99.90;;;;;;5051738;28;20203;-56
2022/11/16 00:23:55;;;;;;;5.73;3.80;;;11.80;99.90;;;;;;5051612;28;20230;-58
2022/11/16 00:26:22;;;;;;;4.93;3.93;;;11.80;99.90;;;;;;5051777;28;20213;-56
2022/11/16 00:28:51;;;;;;;6.47;4.27;;;11.90;99.90;;;;;;5051497;28;20252;-57
2022/11/16 00:31:18;;;;;;;8.33;4.37;;;11.80;99.90;;;;;;5051420;28;20217;-58
2022/11/16 00:33:46;;;;;;;7.00;4.00;;;11.70;99.90;;;;;;5051106;28;20275;-55
2022/11/16 00:36:13;;;;;;;9.43;4.40;;;11.70;99.90;;;;;;5051072;28;20690;-58
2022/11/16 00:38:41;;;;;;;5.47;4.17;;;11.70;99.90;;;;;;5055520;28;20737;-59
2022/11/16 00:41:08;;;;;;;6.70;4.70;;;11.70;99.90;;;;;;5055250;28;20209;-59
2022/11/16 00:43:35;;;;;;;5.20;4.00;;;11.70;99.90;;;;;;5055045;28;20227;-58
2022/11/16 00:46:02;;;;;;;6.70;4.10;;;11.70;99.90;;;;;;5054683;28;20209;-58
2022/11/16 00:48:29;;;;;;;6.73;5.10;;;11.70;99.90;;;;;;5054996;28;20205;-58
2022/11/16 00:50:57;;;;;;;6.23;4.57;;;11.60;99.90;;;;;;5055078;28;20236;-59
2022/11/16 00:53:24;;;;;;;7.20;4.87;;;11.70;99.90;;;;;;5054867;28;20710;-57
2022/11/16 00:55:50;;;;;;;5.33;4.40;;;11.70;99.90;;;;;;5054468;28;20212;-56
2022/11/16 00:58:17;;;;;;;5.97;4.53;;;11.70;99.90;;;;;;5054866;28;20251;-57
2022/11/16 01:00:44;;;;;;;6.47;4.23;;;11.70;99.90;;;;;;5054832;28;20201;-58
2022/11/16 01:03:11;;;;;;;6.80;4.63;;;11.60;99.90;;;;;;5054738;28;20241;-59
2022/11/16 01:05:38;;;;;;;5.83;4.33;;;11.60;99.90;;;;;;5054803;28;20208;-59
2022/11/16 01:08:07;;;;;;;6.23;4.43;;;11.60;99.90;;;;;;5054863;28;20284;-58
2022/11/16 01:10:34;;;;;;;7.57;5.10;;;11.60;99.90;;;;;;5054639;28;20210;-59
2022/11/16 01:13:00;;;;;;;6.37;4.53;;;11.50;99.90;;;;;;5054593;28;20634;-59
2022/11/16 01:15:27;;;;;;;6.57;4.70;;;11.50;99.90;;;;;;5054503;28;20206;-59
2022/11/16 01:17:56;;;;;;;5.80;4.57;;;11.50;99.90;;;;;;5054234;28;20241;-58
2022/11/16 01:20:27;;;;;;;6.17;4.57;;;11.40;99.90;;;;;;5054257;28;20206;-58
2022/11/16 01:22:54;;;;;;;5.87;4.00;;;11.50;99.90;;;;;;5054500;28;20645;-59
2022/11/16 01:25:22;;;;;;;6.60;5.03;;;11.50;99.90;;;;;;5054461;28;20214;-57
2022/11/16 01:27:48;;;;;;;7.07;4.57;;;11.40;99.90;;;;;;5054185;28;20562;-59
2022/11/16 01:30:16;;;;;;;8.33;5.00;;;11.40;99.90;;;;;;5053950;28;20205;-58
2022/11/16 01:32:43;;;;;;;6.30;5.07;;;11.40;99.90;;;;;;5054248;28;20233;-59
2022/11/16 01:35:14;;;;;;;5.73;4.47;;;11.40;99.90;;;;;;5054034;28;20217;-58
2022/11/16 01:37:40;;;;;;;5.40;4.47;;;11.40;99.90;;;;;;5053895;28;20217;-59
2022/11/16 01:40:08;;;;;;;7.33;5.43;;;11.40;99.90;;;;;;5053926;28;20259;-59
2022/11/16 01:42:36;;;;;;;6.60;5.00;;;11.50;99.90;;;;;;5054013;28;20283;-59
2022/11/16 01:45:18;;;;;;;7.60;5.00;;;11.50;99.90;;;;;;5054044;28;20705;-59
2022/11/16 01:47:45;;;;;;;6.97;4.97;;;11.30;99.90;;;;;;5053256;28;20259;-59
2022/11/16 01:50:16;;;;;;;6.80;5.33;;;11.30;99.90;;;;;;5053564;28;20209;-59
2022/11/16 01:52:47;;;;;;;7.77;5.37;;;11.30;99.90;;;;;;5053933;28;20583;-59
2022/11/16 01:55:14;;;;;;;7.40;5.77;;;11.30;99.90;;;;;;5053829;28;20206;-59
2022/11/16 01:57:45;;;;;;;6.80;5.60;;;11.30;99.90;;;;;;5053728;28;20616;-59
2022/11/16 02:00:14;;;;;;;5.13;4.40;;;11.30;99.90;;;;;;5053816;28;20209;-59
2022/11/16 02:02:41;;;;;;;6.70;5.50;;;11.30;99.90;;;;;;5053709;28;20226;-58
2022/11/16 02:05:10;;;;;;;9.07;5.23;;;11.30;99.90;;;;;;5053533;28;20206;-58
2022/11/16 02:10:57;;;;;;;10.67;5.50;;;11.20;99.90;;;;;;5053701;28;20736;-59
2022/11/16 02:13:36;;;;;;;6.57;5.23;;;11.20;99.90;;;;;;5053568;28;20233;-59
2022/11/16 02:16:14;;;;;;;8.47;5.50;;;11.20;99.90;;;;;;5053224;28;20235;-59
2022/11/16 02:18:51;;;;;;;7.90;6.00;;;11.20;99.90;;;;;;5053488;28;20209;-59
2022/11/16 02:21:35;;;;;;;10.20;6.03;;;11.20;99.90;;;;;;5053484;28;20664;-59
2022/11/16 02:24:39;;;;;;;8.97;5.97;;;11.20;99.90;;;;;;5053228;28;20596;-58
2022/11/16 02:27:33;;;;;;;8.37;5.47;;;11.20;99.90;;;;;;5053185;28;20672;-58
2022/11/16 02:30:02;;;;;;;9.07;6.73;;;11.10;99.90;;;;;;5053238;28;20209;-58
2022/11/16 02:32:34;;;;;;;8.00;6.10;;;11.10;99.90;;;;;;5053718;28;20720;-55
2022/11/16 02:35:06;;;;;;;7.77;5.50;;;11.10;99.90;;;;;;5053722;28;20210;-52
2022/11/16 02:37:36;;;;;;;8.43;6.17;;;11.10;99.90;;;;;;5053035;28;20205;-54
2022/11/16 02:40:06;;;;;;;8.53;5.80;;;11.10;99.90;;;;;;5053222;28;20210;-53
2022/11/16 02:42:37;;;;;;;9.70;5.67;;;11.10;99.90;;;;;;5052872;28;20233;-56
2022/11/16 02:45:10;;;;;;;6.90;5.30;;;11.10;99.90;;;;;;5052766;28;20669;-56
2022/11/16 02:47:38;;;;;;;7.30;5.70;;;11.10;99.90;;;;;;5052509;28;20205;-56
2022/11/16 02:50:10;;;;;;;7.10;6.00;;;11.10;99.90;;;;;;5052847;28;20209;-53
2022/11/16 02:52:37;;;;;;;7.53;5.73;;;11.10;99.90;;;;;;5052811;28;20233;-57
2022/11/16 02:55:04;;;;;;;6.67;5.27;;;11.10;99.90;;;;;;5052903;28;20256;-58
2022/11/16 02:57:42;;;;;;;9.63;5.53;;;11.10;99.90;;;;;;5052595;28;20589;-58
2022/11/16 03:00:16;;;;;;;8.33;5.00;;;11.20;99.90;;;;;;5052465;28;20570;-58
2022/11/16 03:02:50;;;;;;;7.83;4.27;;;11.10;99.90;;;;;;5051946;28;20707;-57
2022/11/16 03:05:30;;;;;;;4.93;4.03;;;11.10;99.90;;;;;;5052881;28;20202;-58
2022/11/16 03:08:04;;;;;;;5.63;3.63;;;11.10;99.90;;;;;;5052460;28;20210;-55
2022/11/16 03:13:20;;;;;;;6.17;3.63;;;11.10;99.90;;;;;;5052424;28;20303;-59
2022/11/16 03:15:50;;;;;;;3.87;3.03;;;11.10;99.90;;;;;;5052470;28;20283;-59
2022/11/16 03:18:21;;;;;;;4.90;3.77;;;11.10;99.90;;;;;;5052395;28;20214;-57
2022/11/16 03:20:51;;;;;;;4.57;3.40;;;11.20;99.90;;;;;;5052149;28;20575;-58
2022/11/16 03:23:18;;;;;;;4.00;2.80;;;11.10;99.90;;;;;;5052022;28;20735;-58
2022/11/16 03:25:49;;;;;;;3.50;3.10;;;11.20;99.90;;;;;;5052252;28;20243;-56
2022/11/16 03:28:23;;;;;;;4.97;3.00;;;11.20;99.90;;;;;;5051785;28;20684;-55
2022/11/16 03:30:54;;;;;;;3.40;3.00;;;11.10;99.90;;;;;;5051992;28;20335;-57
2022/11/16 03:33:25;;;;;;;3.83;2.80;;;11.10;99.90;;;;;;5051727;28;20234;-58
2022/11/16 03:35:56;;;;;;;3.73;2.60;;;11.10;99.90;;;;;;5052071;28;20684;-58
2022/11/16 03:38:26;;;;;;;3.40;2.50;;;11.10;99.90;;;;;;5051991;28;20263;-60
2022/11/16 03:40:55;;;;;;;5.00;2.33;;;11.10;99.90;;;;;;5051905;28;20217;-60
2022/11/16 03:43:25;;;;;;;2.40;1.90;;;11.10;99.90;;;;;;5051865;28;20226;-56
2022/11/16 03:45:54;;;;;;;3.03;1.80;;;11.10;99.90;;;;;;5051392;28;20668;-58
2022/11/16 03:48:21;;;;;;;2.87;2.13;;;11.10;99.90;;;;;;5052070;28;20263;-58
2022/11/16 03:50:48;;;;;;;3.30;2.47;;;11.00;99.90;;;;;;5051853;28;20256;-58
2022/11/16 03:53:14;;;;;;;3.27;2.00;;;11.00;99.90;;;;;;5051814;28;20260;-58
2022/11/16 03:55:41;;;;;;;2.53;1.73;;;11.00;99.90;;;;;;5051768;28;20205;-58
2022/11/16 03:58:08;;;;;;;2.03;1.83;;;11.00;99.90;;;;;;5051665;28;20206;-56
2022/11/16 04:00:34;;;;;;;3.93;2.13;;;10.90;99.90;;;;;;5051720;28;20567;-56
2022/11/16 04:03:03;;;;;;;2.30;2.03;;;11.00;99.90;;;;;;5051733;28;20233;-58
2022/11/16 04:24:49;;;;;;;5.00;2.50;;;10.80;99.90;;;;;;5055454;28;20627;-58
2022/11/16 04:30:04;;;;;;;3.57;2.13;;;10.90;99.90;;;;;;5055855;28;20220;-59
2022/11/16 04:38:01;;;;;;;2.37;1.93;;;10.80;99.90;;;;;;5055165;28;20204;-59
2022/11/16 04:40:28;;;;;;;2.80;2.00;;;10.90;99.90;;;;;;5055149;28;20668;-58
2022/11/16 04:42:56;;;;;;;2.40;1.80;;;10.90;99.90;;;;;;5055211;28;20308;-59
2022/11/16 04:48:09;;;;;;;5.20;2.40;;;10.90;99.90;;;;;;5054865;28;20201;-59
2022/11/16 04:50:38;;;;;;;3.13;2.40;;;10.80;99.90;;;;;;5054894;28;20767;-58
2022/11/16 04:53:06;;;;;;;3.33;2.03;;;10.80;99.90;;;;;;5055031;28;20225;-58
2022/11/16 04:55:33;;;;;;;2.47;2.03;;;10.80;99.90;;;;;;5055042;28;20206;-58
2022/11/16 04:58:01;;;;;;;3.73;2.60;;;10.80;99.90;;;;;;5054754;28;20267;-59
2022/11/16 05:00:28;;;;;;;4.13;2.20;;;10.80;99.90;;;;;;5054678;28;20560;-59
2022/11/16 05:02:54;;;;;;;2.87;2.20;;;10.70;99.90;;;;;;5054706;28;20275;-58
2022/11/16 05:05:21;;;;;;;3.03;2.47;;;10.70;99.90;;;;;;5055012;28;20209;-58
2022/11/16 05:07:50;;;;;;;2.80;2.10;;;10.70;99.90;;;;;;5054541;28;20206;-58
2022/11/16 05:10:16;;;;;;;5.00;2.40;;;10.70;99.90;;;;;;5054808;28;20208;-59
2022/11/16 05:12:43;;;;;;;2.63;2.27;;;10.70;99.90;;;;;;5054594;28;20225;-59
2022/11/16 05:15:10;;;;;;;2.37;2.00;;;10.70;99.90;;;;;;5054529;28;20672;-59
2022/11/16 05:17:37;;;;;;;4.23;2.10;;;10.60;99.90;;;;;;5054256;28;20218;-58
2022/11/16 05:22:54;;;;;;;3.40;2.37;;;10.60;99.90;;;;;;5054037;28;20313;-59
2022/11/16 05:25:21;;;;;;;3.67;2.30;;;10.60;99.90;;;;;;5054496;28;20776;-59
2022/11/16 05:27:47;;;;;;;2.90;2.33;;;10.60;99.90;;;;;;5053384;28;20214;-59
2022/11/16 05:30:14;;;;;;;3.17;2.43;;;10.60;99.90;;;;;;5054335;28;20267;-62
2022/11/16 05:32:41;;;;;;;3.43;2.63;;;10.50;99.90;;;;;;5053962;28;20552;-60
2022/11/16 05:35:08;;;;;;;2.60;2.20;;;10.60;99.90;;;;;;5054287;28;20681;-59
2022/11/16 05:37:35;;;;;;;3.17;2.30;;;10.60;99.90;;;;;;5053985;28;20210;-60
2022/11/16 05:40:03;;;;;;;2.93;2.30;;;10.60;99.90;;;;;;5054243;28;20278;-59
2022/11/16 05:42:30;;;;;;;2.70;2.30;;;10.60;99.90;;;;;;5053838;28;20233;-59
2022/11/16 05:44:56;;;;;;;3.37;2.20;;;10.60;99.90;;;;;;5054255;28;20209;-60
2022/11/16 05:47:23;;;;;;;3.37;2.43;;;10.60;99.90;;;;;;5053683;28;20213;-64
2022/11/16 05:49:50;;;;;;;3.00;2.30;;;10.60;99.90;;;;;;5038681;28;20268;-61
2022/11/16 05:52:16;;;;;;;3.10;2.10;;;10.60;99.90;;;;;;5032826;28;20253;-61
2022/11/16 05:54:43;;;;;;;3.73;2.03;;;10.50;99.90;;;;;;5033889;28;20206;-61
2022/11/16 05:57:11;;;;;;;2.53;2.00;;;10.60;99.90;;;;;;5033524;28;20276;-61
2022/11/16 05:59:38;;;;;;;2.33;1.97;;;10.50;99.90;;;;;;5033292;28;20206;-61
2022/11/16 06:02:04;;;;;;;2.50;1.93;;;10.50;99.90;;;;;;5033811;28;20248;-61
2022/11/16 06:04:32;;;;;;;6.23;1.67;;;10.50;99.90;;;;;;5033156;28;20233;-61
2022/11/16 06:06:59;;;;;;;2.17;1.50;;;10.50;99.90;;;;;;5033463;28;20259;-61
2022/11/16 06:09:25;;;;;;;2.87;1.67;;;10.50;99.90;;;;;;5033010;28;20210;-61
2022/11/16 06:11:52;;;;;;;2.23;1.90;;;10.50;99.90;;;;;;5033604;28;20210;-59
2022/11/16 06:14:20;;;;;;;2.80;1.70;;;10.50;99.90;;;;;;5032965;28;20266;-61
2022/11/16 06:16:46;;;;;;;1.73;1.53;;;10.50;99.90;;;;;;5033507;28;20214;-61
2022/11/16 06:19:13;;;;;;;3.30;1.70;;;10.50;99.90;;;;;;5032935;28;20202;-59
2022/11/16 06:21:40;;;;;;;3.03;1.97;;;10.50;99.90;;;;;;5033189;28;20344;-63
2022/11/16 06:24:08;;;;;;;2.70;1.77;;;10.50;99.90;;;;;;5032792;28;20725;-59
2022/11/16 06:26:35;;;;;;;2.33;2.00;;;10.50;99.90;;;;;;5032875;28;20279;-58
2022/11/16 06:29:02;;;;;;;2.67;2.07;;;10.50;99.90;;;;;;5033316;28;20293;-58
2022/11/16 06:31:30;;;;;;;2.77;2.50;;;10.50;99.90;;;;;;5032750;28;20212;-58
2022/11/16 06:33:57;;;;;;;3.87;3.10;;;10.50;99.90;;;;;;5032732;28;20230;-59
2022/11/16 06:36:23;;;;;;;4.40;3.07;;;10.50;99.90;;;;;;5031999;28;20205;-60
2022/11/16 06:38:50;;;;;;;3.70;3.13;;;10.50;99.90;;;;;;5032670;28;20610;-61
2022/11/16 06:41:17;;;;;;;4.93;3.50;;;10.50;99.90;;;;;;5032528;28;20225;-60
2022/11/16 06:43:44;;;;;;;7.17;3.97;;;10.40;99.90;;;;;;5032919;28;20222;-60
2022/11/16 06:46:10;;;;;;;7.23;3.93;;;10.50;99.90;;;;;;5032104;28;20206;-59
2022/11/16 06:48:38;;;;;;;8.50;4.43;;;10.50;99.90;;;;;;5033273;28;20612;-59
2022/11/16 06:51:05;;;;;;;7.37;5.03;;;10.50;99.90;;;;;;5032221;28;20604;-59
2022/11/16 06:53:32;;;;;;;7.90;5.10;;;10.40;99.90;;;;;;5032128;28;20233;-58
2022/11/16 06:56:01;;;;;;;9.30;5.80;;;10.40;99.90;;;;;;5032700;28;20264;-58
2022/11/16 06:58:29;;;;;;;7.63;5.10;;;10.40;99.90;;;;;;5032032;28;20296;-58
2022/11/16 07:00:55;;;;;;;10.83;6.03;;;10.40;99.90;;;;;;5032958;28;20256;-58
2022/11/16 07:03:22;;;;;;;9.20;5.73;;;10.40;99.90;;;;;;5032751;28;20234;-59
2022/11/16 07:05:50;;;;;;;9.93;5.40;;;10.40;99.90;;;;;;5034234;28;20276;-64
2022/11/16 07:08:17;;;;;;;7.97;5.60;;;10.40;99.90;;;;;;5032889;28;20206;-64
2022/11/16 07:10:43;;;;;;;7.83;5.63;;;10.50;99.90;;;;;;5032919;28;20206;-64
2022/11/16 07:13:10;;;;;;;10.17;5.73;;;10.50;99.90;;;;;;5032483;28;20284;-65
2022/11/16 07:15:37;;;;;;;6.83;5.53;;;10.50;99.90;;;;;;5031421;28;20233;-65
2022/11/16 07:18:05;;;;;;;9.23;5.67;;;10.40;99.90;;;;;;5051217;28;20202;-64
2022/11/16 07:20:31;;;;;;;11.70;6.03;;;10.40;99.90;;;;;;5051679;28;20232;-64
2022/11/16 07:23:03;;;;;;;10.07;6.40;;;10.40;99.90;;;;;;5051716;28;20222;-59
2022/11/16 07:25:31;;;;;;;9.07;5.70;;;10.40;99.90;;;;;;5051028;28;20692;-59
2022/11/16 07:27:58;;;;;;;7.73;5.03;;;10.50;99.90;;;;;;5051685;28;20206;-59
2022/11/16 07:30:25;;;;;;;7.40;5.10;;;10.50;99.90;;;;;;5050958;28;20585;-59
2022/11/16 07:32:57;;;;;;;7.90;4.53;;;10.50;99.90;;;;;;5051205;28;20236;-59
2022/11/16 07:35:23;;;;;;;6.10;4.07;;;10.50;99.90;;;;;;5036080;28;20214;-60
2022/11/16 07:37:50;;;;;;;8.93;3.90;;;10.30;99.90;;;;;;5031714;28;20207;-59
2022/11/16 07:40:18;;;;;;;6.93;3.50;;;10.30;99.90;;;;;;5031179;28;20236;-59
2022/11/16 07:42:45;;;;;;;5.93;2.80;;;10.30;99.90;;;;;;5031212;28;20237;-57
2022/11/16 07:45:12;;;;;;;5.13;3.13;;;10.20;99.90;;;;;;5030991;28;20586;-58
2022/11/16 07:47:38;;;;;;;4.87;3.30;;;10.20;99.90;;;;;;5029932;28;20209;-58
2022/11/16 07:50:06;;;;;;;7.80;3.87;;;10.20;99.90;;;;;;5031541;28;20202;-58
2022/11/16 07:52:33;;;;;;;8.50;3.00;;;10.20;99.90;;;;;;5030752;28;20230;-54
2022/11/16 07:55:00;;;;;;;6.07;3.10;;;10.20;99.90;;;;;;5031272;28;20221;-60
2022/11/16 07:57:28;;;;;;;5.67;3.13;;;10.10;99.90;;;;;;5030740;28;20205;-61
2022/11/16 07:59:55;;;;;;;8.13;2.30;;;10.10;99.90;;;;;;5031409;28;20260;-59
2022/11/16 08:02:21;;;;;;;8.77;2.50;;;10.10;99.90;;;;;;5037287;28;20213;-60
2022/11/16 08:04:48;;;;;;;4.73;2.20;;;10.00;99.90;;;;;;5050601;28;20209;-58
2022/11/16 08:07:15;;;;;;;6.60;2.90;;;10.00;99.90;;;;;;5050915;28;20675;-59
2022/11/16 08:09:42;;;;;;;6.97;2.43;;;10.10;99.90;;;;;;5050652;28;20228;-59
2022/11/16 08:12:08;;;;;;;4.47;2.40;;;10.10;99.90;;;;;;5050840;28;20205;-57
2022/11/16 08:14:36;;;;;;;4.60;2.07;;;10.10;99.90;;;;;;5043123;28;20240;-61
2022/11/16 08:17:03;;;;;;;6.83;2.23;;;10.10;99.90;;;;;;5031545;28;20209;-59
2022/11/16 08:19:30;;;;;;;10.27;2.70;;;10.00;99.90;;;;;;5026262;28;20211;-59
2022/11/16 08:21:57;;;;;;;7.10;3.37;;;9.90;99.90;;;;;;5029589;28;20210;-60
2022/11/16 08:24:24;;;;;;;7.83;2.77;;;9.90;99.90;;;;;;5050574;28;20229;-57
2022/11/16 08:26:50;;;;;;;6.33;2.57;;;9.90;99.90;;;;;;5050288;28;20201;-58
2022/11/16 08:29:17;;;;;;;4.63;2.50;;;9.80;99.90;;;;;;5051188;28;20275;-58
2022/11/16 08:31:45;;;;;;;5.30;2.60;;;9.70;99.90;;;;;;5050194;28;20208;-58
2022/11/16 08:34:12;;;;;;;8.70;2.83;;;9.70;99.90;;;;;;5050477;28;20291;-59
2022/11/16 08:36:39;;;;;;;4.37;2.50;;;9.80;99.90;;;;;;5049924;28;20209;-64
2022/11/16 08:39:05;;;;;;;7.07;2.97;;;9.70;99.90;;;;;;5050149;28;20210;-61
2022/11/16 08:41:34;;;;;;;4.17;2.70;;;9.80;99.90;;;;;;5050044;28;20213;-67
2022/11/16 08:44:01;;;;;;;4.87;3.10;;;9.90;99.90;;;;;;5050863;28;20249;-62
2022/11/16 08:46:28;;;;;;;6.20;2.70;;;10.00;99.90;;;;;;5050516;28;20271;-66
2022/11/16 08:48:58;;;;;;;8.33;2.87;;;10.10;99.90;;;;;;5050342;28;20209;-63
2022/11/16 08:51:25;;;;;;;8.27;2.90;;;10.20;99.90;;;;;;5050785;28;20621;-61
2022/11/16 08:53:56;;;;;;;5.77;2.83;;;10.20;99.90;;;;;;5049926;28;20230;-61
2022/11/16 08:56:25;;;;;;;8.37;2.93;;;10.30;99.90;;;;;;5050050;28;20679;-59
2022/11/16 08:58:53;;;;;;;8.90;3.30;;;10.30;99.90;;;;;;5053005;28;20201;-61
2022/11/16 09:01:22;;;;;;;6.47;3.00;;;10.40;99.90;;;;;;5054463;28;20263;-62
2022/11/16 09:03:49;;;;;;;8.43;2.80;;;10.50;99.90;;;;;;5053951;28;20233;-61
2022/11/16 09:06:17;;;;;;;8.17;2.80;;;10.50;99.90;;;;;;5053803;28;20268;-59
2022/11/16 09:08:45;;;;;;;5.87;2.47;;;10.60;99.90;;;;;;5054167;28;20214;-60
2022/11/16 09:11:14;;;;;;;6.97;2.23;;;10.70;99.90;;;;;;5053627;28;20716;-59
2022/11/16 09:13:41;;;;;;;7.50;2.73;;;10.70;99.90;;;;;;5053692;28;20767;-60
2022/11/16 09:16:08;;;;;;;9.17;2.63;;;10.70;99.90;;;;;;5053301;28;20205;-59
2022/11/16 09:18:36;;;;;;;10.53;2.33;;;10.70;99.90;;;;;;5054116;28;20209;-59
2022/11/16 09:21:03;;;;;;;7.77;2.00;;;10.60;99.90;;;;;;5053485;28;20220;-59
2022/11/16 09:23:31;;;;;;;7.23;2.03;;;10.60;99.90;;;;;;5053469;28;20225;-60
2022/11/16 09:26:02;;;;;;;10.50;3.70;;;10.70;99.90;;;;;;5053485;28;20198;-60
2022/11/16 09:28:29;;;;;;;6.80;2.40;;;10.70;99.90;;;;;;5054014;28;20205;-63
2022/11/16 09:30:59;;;;;;;6.83;1.70;;;10.80;99.90;;;;;;5053943;28;20206;-62
2022/11/16 09:33:28;;;;;;;7.13;2.00;;;10.90;99.90;;;;;;5053281;28;20252;-61
2022/11/16 09:35:55;;;;;;;7.27;1.77;;;10.80;99.90;;;;;;5053179;28;20263;-59
2022/11/16 09:38:21;;;;;;;6.77;1.70;;;10.90;99.90;;;;;;5053119;28;20688;-66
2022/11/16 09:40:49;;;;;;;4.60;1.67;;;11.00;99.90;;;;;;5053849;28;20221;-66
2022/11/16 09:43:33;;;;;;;6.13;1.70;;;11.10;99.90;;;;;;5053097;28;20218;-63
2022/11/16 09:46:07;;;;;;;7.67;2.00;;;11.10;99.90;;;;;;5044918;28;21132;-61
2022/11/16 09:48:37;;;;;;;3.40;1.47;;;11.30;99.90;;;;;;5030961;28;20214;-60
2022/11/16 09:51:07;;;;;;;8.13;1.80;;;11.10;99.90;;;;;;5033690;28;20655;-61
2022/11/16 09:53:38;;;;;;;7.57;1.57;;;11.00;99.90;;;;;;5033151;28;20230;-59
2022/11/16 09:56:11;;;;;;;6.50;1.80;;;10.90;99.90;;;;;;5032438;28;20206;-62
2022/11/16 09:58:43;;;;;;;7.63;1.60;;;10.80;99.90;;;;;;5033248;28;20206;-61
2022/11/16 10:01:21;;;;;;;4.97;1.70;;;10.90;99.90;;;;;;5033064;28;20218;-61
2022/11/16 10:03:51;;;;;;;4.73;1.47;;;10.90;99.90;;;;;;5033054;28;20725;-58
2022/11/16 10:06:22;;;;;;;7.53;1.77;;;10.90;99.90;;;;;;5032213;28;20206;-63
2022/11/16 10:08:51;;;;;;;9.57;2.03;;;10.90;99.90;;;;;;5032458;28;20202;-63
2022/11/16 10:11:46;;;;;;;4.97;1.53;;;10.80;99.90;;;;;;5032285;28;20210;-61
2022/11/16 10:14:49;;;;;;;6.03;1.53;;;10.80;99.90;;;;;;5032038;28;20230;-61
2022/11/16 10:17:25;;;;;;;4.83;1.30;;;10.70;99.90;;;;;;5015873;28;20210;-62
2022/11/16 10:19:55;;;;;;;11.30;1.60;;;10.70;99.90;;;;;;5032831;28;20213;-61
2022/11/16 10:22:33;;;;;;;5.83;1.50;;;10.80;99.90;;;;;;5032795;28;20210;-61
2022/11/16 10:25:00;;;;;;;4.23;1.47;;;10.90;99.90;;;;;;5032105;28;20253;-60
2022/11/16 10:27:46;;;;;;;5.07;1.40;;;11.00;99.90;;;;;;5032508;28;20669;-61
2022/11/16 10:30:15;;;;;;;8.90;1.63;;;11.20;99.90;;;;;;5032289;28;20214;-61
2022/11/16 10:32:49;;;;;;;7.90;1.40;;;11.40;99.90;;;;;;5032755;28;20259;-61
2022/11/16 10:35:18;;;;;;;6.10;1.77;;;11.40;97.30;;;;;;5031842;28;20600;-62
2022/11/16 10:37:48;;;;;;;8.90;1.77;;;11.50;91.40;;;;;;5032308;28;20301;-62
2022/11/16 10:40:23;;;;;;;6.43;1.33;;;11.50;71.90;;;;;;5032046;28;20389;-61
2022/11/16 10:43:00;;;;;;;2.60;1.00;;;11.50;38.80;;;;;;5032082;28;20239;-59
2022/11/16 10:45:35;;;;;;;7.43;1.27;;;11.40;33.10;;;;;;5032172;28;20202;-61
2022/11/16 10:48:11;;;;;;;5.33;2.20;;;11.30;49.10;;;;;;5031501;28;20680;-62
2022/11/16 10:50:40;;;;;;;3.67;1.23;;;11.40;43.60;;;;;;5032347;28;20608;-62
2022/11/16 10:53:12;;;;;;;2.00;0.90;;;11.30;1.00;;;;;;5031697;28;20231;-61
2022/11/16 10:55:39;;;;;;;6.00;1.30;;;11.30;9.60;;;;;;5023211;28;21756;-61
2022/11/16 10:58:07;;;;;;;3.53;1.00;;;11.30;1.00;;;;;;5028248;28;20206;-58
2022/11/16 11:00:47;;;;;;;4.07;1.13;;;11.30;12.40;;;;;;5032788;28;20594;-61
2022/11/16 11:03:15;;;;;;;3.50;1.07;;;11.50;1.00;;;;;;5032122;28;20237;-62
2022/11/16 11:05:52;;;;;;;5.13;1.37;;;11.60;1.00;;;;;;5031285;28;20211;-62
2022/11/16 11:08:26;;;;;;;3.43;1.27;;;11.70;1.00;;;;;;5032035;28;20213;-63
2022/11/16 11:12:36;;;;;;;2.63;1.60;;;11.80;1.00;;;;;;5031606;28;20209;-61
2022/11/16 11:14:03;;;;;;;4.13;1.23;;;11.80;1.00;;;;;;5031448;28;20617;-61
2022/11/16 11:16:30;;;;;;;5.27;1.30;;;11.70;1.00;;;;;;5031088;28;20210;-59
2022/11/16 11:18:57;;;;;;;5.93;1.40;;;11.70;1.00;;;;;;5031896;28;20214;-59
2022/11/16 11:21:27;;;;;;;4.33;1.10;;;11.70;1.00;;;;;;5030992;28;20267;-65
2022/11/16 11:23:55;;;;;;;2.63;0.90;;;11.70;1.00;;;;;;5032065;28;20326;-63
2022/11/16 11:26:30;;;;;;;6.33;1.37;;;11.80;1.00;;;;;;5030578;28;20214;-65
2022/11/16 11:29:00;;;;;;;4.60;1.40;;;11.80;1.00;;;;;;5032394;28;20726;-63
2022/11/16 11:31:33;;;;;;;4.33;1.40;;;11.80;1.00;;;;;;5032331;28;20694;-61
2022/11/16 11:34:04;;;;;;;6.57;1.57;;;11.90;1.00;;;;;;5031588;28;20238;-59
2022/11/16 11:36:37;;;;;;;5.90;1.47;;;11.90;1.00;;;;;;5031771;28;20582;-61
2022/11/16 11:39:06;;;;;;;4.43;1.37;;;11.90;1.00;;;;;;5031529;28;20248;-60
2022/11/16 11:41:36;;;;;;;3.50;1.30;;;11.90;1.00;;;;;;5031776;28;20215;-61
2022/11/16 11:44:06;;;;;;;4.63;1.43;;;12.00;1.00;;;;;;5030604;28;20625;-62
2022/11/16 11:46:36;;;;;;;5.57;1.60;;;11.90;1.00;;;;;;5031218;28;20206;-61
2022/11/16 11:49:11;;;;;;;6.20;1.97;;;11.80;1.00;;;;;;5031141;28;20204;-61
2022/11/16 11:51:41;;;;;;;5.30;1.40;;;11.90;1.00;;;;;;5031821;28;20233;-62
2022/11/16 11:54:17;;;;;;;6.87;1.37;;;11.90;1.00;;;;;;5031189;28;20344;-61
2022/11/16 11:56:44;;;;;;;4.77;1.30;;;11.90;1.00;;;;;;5031052;28;20703;-61
2022/11/16 11:59:18;;;;;;;7.20;1.57;;;11.90;1.00;;;;;;5030845;28;20208;-61
2022/11/16 12:02:05;;;;;;;2.13;1.13;;;12.10;1.00;;;;;;5030762;28;20264;-61
2022/11/16 12:05:10;;;;;;;4.13;1.20;;;12.20;1.00;;;;;;5031110;28;20294;-61
2022/11/16 12:07:54;;;;;;;4.20;1.60;;;12.20;1.00;;;;;;5031104;28;20211;-61
2022/11/16 12:10:27;;;;;;;5.53;0.90;;;12.20;1.00;;;;;;5030913;28;20213;-61
2022/11/16 12:13:10;;;;;;;7.33;1.50;;;12.30;1.00;;;;;;5030997;28;20226;-62
2022/11/16 12:15:53;;;;;;;8.67;1.50;;;12.40;1.00;;;;;;5030802;28;20252;-61
2022/11/16 12:18:34;;;;;;;8.73;1.33;;;12.30;1.00;;;;;;5030223;28;20202;-58
2022/11/16 12:21:09;;;;;;;4.20;1.53;;;12.20;1.00;;;;;;5031046;28;20214;-61
2022/11/16 12:23:55;;;;;;;3.33;1.30;;;12.20;1.00;;;;;;5030622;28;20226;-61
2022/11/16 12:26:35;;;;;;;5.53;1.23;;;12.20;1.00;;;;;;5030446;28;20217;-61
2022/11/16 12:29:18;;;;;;;6.73;1.73;;;12.30;1.00;;;;;;5030807;28;20206;-60
2022/11/16 12:32:05;;;;;;;4.67;1.20;;;12.30;1.00;;;;;;5030954;28;20292;-66
2022/11/16 12:34:51;;;;;;;4.17;1.43;;;12.20;1.00;;;;;;5033713;28;20234;-61
2022/11/16 12:37:23;;;;;;;6.43;1.47;;;12.20;1.00;;;;;;5031223;28;20209;-58
2022/11/16 12:40:01;;;;;;;3.90;1.10;;;12.30;1.00;;;;;;5034638;28;20556;-62
2022/11/16 12:42:40;;;;;;;7.43;1.30;;;12.40;1.00;;;;;;5034460;28;20271;-59
2022/11/16 12:45:22;;;;;;;4.37;1.30;;;12.40;1.00;;;;;;5033928;28;20314;-60
2022/11/16 12:48:06;;;;;;;4.07;1.37;;;12.60;1.00;;;;;;5034216;28;20748;-58
2022/11/16 12:50:50;;;;;;;5.87;1.70;;;12.70;1.00;;;;;;5014433;28;20277;-60
2022/11/16 12:53:37;;;;;;;6.97;1.40;;;12.70;1.00;;;;;;5014856;28;20272;-58
2022/11/16 12:56:11;;;;;;;4.23;1.23;;;12.60;99.90;;;;;;5011521;28;20237;-61
2022/11/16 12:58:55;;;;;;;8.67;1.50;;;12.60;99.90;;;;;;5014540;28;20216;-61
2022/11/16 13:01:29;;;;;;;6.20;1.27;;;12.50;99.90;;;;;;5014551;28;20211;-61
2022/11/16 13:04:02;;;;;;;4.10;1.17;;;12.40;99.90;;;;;;5014125;28;20308;-63
2022/11/16 13:06:34;;;;;;;4.27;1.17;;;12.50;99.90;;;;;;5017909;28;20220;-61
2022/11/16 13:09:07;;;;;;;4.73;1.43;;;12.50;99.90;;;;;;5033869;28;20275;-59
2022/11/16 13:11:37;;;;;;;5.83;1.10;;;12.50;99.90;;;;;;5034441;28;20213;-59
2022/11/16 13:14:07;;;;;;;7.03;1.30;;;12.50;99.90;;;;;;5033443;28;20647;-60
2022/11/16 13:16:34;;;;;;;7.30;1.63;;;12.50;99.90;;;;;;5034101;28;20201;-61
2022/11/16 13:19:05;;;;;;;4.53;1.17;;;12.50;99.90;;;;;;5034127;28;20614;-61
2022/11/16 13:21:43;;;;;;;5.67;0.90;;;12.50;99.90;;;;;;5034466;28;20209;-62
2022/11/16 13:24:22;;;;;;;6.73;1.23;;;12.50;99.90;;;;;;5034000;28;20237;-64
2022/11/16 13:26:56;;;;;;;2.77;1.30;;;12.50;99.90;;;;;;5033638;28;20212;-61
2022/11/16 13:29:32;;;;;;;5.27;1.47;;;12.30;41.30;;;;;;5034318;28;20187;-61
2022/11/16 13:32:07;;;;;;;3.83;1.13;;;12.30;99.50;;;;;;5032738;28;20335;-63
2022/11/16 13:34:38;;;;;;;4.70;1.20;;;12.30;4.30;;;;;;5033897;28;20229;-64
2022/11/16 13:37:39;;;;;;;5.93;1.20;;;12.30;1.00;;;;;;5033150;28;20584;-63
2022/11/16 13:40:30;;;;;;;6.03;1.10;;;12.20;1.00;;;;;;5033901;28;20598;-66
2022/11/16 13:43:07;;;;;;;4.27;1.00;;;12.10;63.40;;;;;;5025146;28;20229;-64
2022/11/16 13:45:38;;;;;;;4.00;1.67;;;12.00;25.20;;;;;;5032073;28;20593;-63